sensor_id;sensor_type;location;lat;lon;timestamp;P1;durP1;ratioP1;P2;durP2;ratioP2
71806;SDS011;59655;42.590;23.364;2024-03-08T00:00:13;6.63;;;4.10;;
71806;SDS011;59655;42.590;23.364;2024-03-08T00:02:39;11.73;;;5.22;;
71806;SDS011;59655;42.590;23.364;2024-03-08T00:05:06;10.57;;;5.85;;
71806;SDS011;59655;42.590;23.364;2024-03-08T00:07:34;12.70;;;6.75;;
71806;SDS011;59655;42.590;23.364;2024-03-08T00:10:06;13.10;;;5.95;;
71806;SDS011;59655;42.590;23.364;2024-03-08T00:12:36;13.23;;;7.65;;
71806;SDS011;59655;42.590;23.364;2024-03-08T00:15:11;17.85;;;7.53;;
71806;SDS011;59655;42.590;23.364;2024-03-08T00:17:40;11.55;;;6.07;;
71806;SDS011;59655;42.590;23.364;2024-03-08T00:20:07;11.68;;;5.63;;
71806;SDS011;59655;42.590;23.364;2024-03-08T00:25:04;9.00;;;4.80;;
71806;SDS011;59655;42.590;23.364;2024-03-08T00:27:30;14.95;;;7.05;;
71806;SDS011;59655;42.590;23.364;2024-03-08T00:29:56;14.38;;;7.13;;
71806;SDS011;59655;42.590;23.364;2024-03-08T00:32:25;17.45;;;7.90;;
71806;SDS011;59655;42.590;23.364;2024-03-08T00:34:52;14.80;;;6.72;;
71806;SDS011;59655;42.590;23.364;2024-03-08T00:37:20;13.07;;;6.72;;
71806;SDS011;59655;42.590;23.364;2024-03-08T00:39:52;15.77;;;6.57;;
71806;SDS011;59655;42.590;23.364;2024-03-08T00:42:19;13.00;;;6.57;;
71806;SDS011;59655;42.590;23.364;2024-03-08T00:44:45;15.20;;;7.13;;
71806;SDS011;59655;42.590;23.364;2024-03-08T00:47:10;15.88;;;7.50;;
71806;SDS011;59655;42.590;23.364;2024-03-08T00:49:36;11.95;;;6.18;;
71806;SDS011;59655;42.590;23.364;2024-03-08T00:52:03;12.00;;;6.28;;
71806;SDS011;59655;42.590;23.364;2024-03-08T00:54:32;13.43;;;6.63;;
71806;SDS011;59655;42.590;23.364;2024-03-08T00:56:57;12.85;;;6.15;;
71806;SDS011;59655;42.590;23.364;2024-03-08T00:59:23;13.18;;;6.88;;
71806;SDS011;59655;42.590;23.364;2024-03-08T01:01:48;15.23;;;7.22;;
71806;SDS011;59655;42.590;23.364;2024-03-08T01:04:13;13.52;;;7.05;;
71806;SDS011;59655;42.590;23.364;2024-03-08T01:06:38;13.05;;;6.68;;
71806;SDS011;59655;42.590;23.364;2024-03-08T01:09:04;15.55;;;7.22;;
71806;SDS011;59655;42.590;23.364;2024-03-08T01:11:32;15.57;;;7.72;;
71806;SDS011;59655;42.590;23.364;2024-03-08T01:13:58;14.90;;;7.38;;
71806;SDS011;59655;42.590;23.364;2024-03-08T01:16:24;14.50;;;7.25;;
71806;SDS011;59655;42.590;23.364;2024-03-08T01:18:49;13.93;;;6.70;;
71806;SDS011;59655;42.590;23.364;2024-03-08T01:21:15;16.33;;;7.75;;
71806;SDS011;59655;42.590;23.364;2024-03-08T01:23:40;14.07;;;7.13;;
71806;SDS011;59655;42.590;23.364;2024-03-08T01:26:06;17.52;;;8.55;;
71806;SDS011;59655;42.590;23.364;2024-03-08T01:28:31;14.13;;;7.03;;
71806;SDS011;59655;42.590;23.364;2024-03-08T01:30:58;14.40;;;7.68;;
71806;SDS011;59655;42.590;23.364;2024-03-08T01:33:24;17.17;;;8.05;;
71806;SDS011;59655;42.590;23.364;2024-03-08T01:35:53;16.13;;;8.07;;
71806;SDS011;59655;42.590;23.364;2024-03-08T01:38:19;17.85;;;8.50;;
71806;SDS011;59655;42.590;23.364;2024-03-08T01:40:46;16.75;;;7.80;;
71806;SDS011;59655;42.590;23.364;2024-03-08T01:43:18;18.40;;;8.57;;
71806;SDS011;59655;42.590;23.364;2024-03-08T01:45:44;17.70;;;8.45;;
71806;SDS011;59655;42.590;23.364;2024-03-08T01:48:10;12.77;;;6.10;;
71806;SDS011;59655;42.590;23.364;2024-03-08T01:50:35;11.40;;;5.90;;
71806;SDS011;59655;42.590;23.364;2024-03-08T01:53:01;18.85;;;6.35;;
71806;SDS011;59655;42.590;23.364;2024-03-08T01:55:27;11.43;;;5.75;;
71806;SDS011;59655;42.590;23.364;2024-03-08T01:57:52;13.55;;;6.45;;
71806;SDS011;59655;42.590;23.364;2024-03-08T02:00:18;17.70;;;6.50;;
71806;SDS011;59655;42.590;23.364;2024-03-08T02:02:45;12.60;;;6.63;;
71806;SDS011;59655;42.590;23.364;2024-03-08T02:05:11;14.55;;;6.40;;
71806;SDS011;59655;42.590;23.364;2024-03-08T02:07:40;14.05;;;7.00;;
71806;SDS011;59655;42.590;23.364;2024-03-08T02:10:08;14.77;;;6.75;;
71806;SDS011;59655;42.590;23.364;2024-03-08T02:12:34;9.93;;;5.15;;
71806;SDS011;59655;42.590;23.364;2024-03-08T02:15:00;11.20;;;5.60;;
71806;SDS011;59655;42.590;23.364;2024-03-08T02:17:25;13.63;;;5.30;;
71806;SDS011;59655;42.590;23.364;2024-03-08T02:19:51;12.93;;;5.30;;
71806;SDS011;59655;42.590;23.364;2024-03-08T02:22:16;13.07;;;4.72;;
71806;SDS011;59655;42.590;23.364;2024-03-08T02:24:42;9.32;;;4.53;;
71806;SDS011;59655;42.590;23.364;2024-03-08T02:27:07;7.30;;;4.18;;
71806;SDS011;59655;42.590;23.364;2024-03-08T02:29:32;7.40;;;4.15;;
71806;SDS011;59655;42.590;23.364;2024-03-08T02:31:59;8.43;;;4.18;;
71806;SDS011;59655;42.590;23.364;2024-03-08T02:34:24;9.23;;;4.75;;
71806;SDS011;59655;42.590;23.364;2024-03-08T02:36:50;8.45;;;4.55;;
71806;SDS011;59655;42.590;23.364;2024-03-08T02:39:16;9.07;;;4.93;;
71806;SDS011;59655;42.590;23.364;2024-03-08T02:41:42;10.73;;;4.78;;
71806;SDS011;59655;42.590;23.364;2024-03-08T02:44:07;8.32;;;4.50;;
71806;SDS011;59655;42.590;23.364;2024-03-08T02:46:32;10.65;;;4.75;;
71806;SDS011;59655;42.590;23.364;2024-03-08T02:48:58;8.15;;;4.10;;
71806;SDS011;59655;42.590;23.364;2024-03-08T02:51:23;8.52;;;4.47;;
71806;SDS011;59655;42.590;23.364;2024-03-08T02:53:51;7.63;;;4.32;;
71806;SDS011;59655;42.590;23.364;2024-03-08T02:56:16;8.00;;;4.30;;
71806;SDS011;59655;42.590;23.364;2024-03-08T02:58:42;6.72;;;3.47;;
71806;SDS011;59655;42.590;23.364;2024-03-08T03:01:08;16.77;;;4.53;;
71806;SDS011;59655;42.590;23.364;2024-03-08T03:03:35;6.10;;;3.20;;
71806;SDS011;59655;42.590;23.364;2024-03-08T03:06:00;5.88;;;3.22;;
71806;SDS011;59655;42.590;23.364;2024-03-08T03:08:26;5.78;;;2.88;;
71806;SDS011;59655;42.590;23.364;2024-03-08T03:10:51;6.10;;;3.20;;
71806;SDS011;59655;42.590;23.364;2024-03-08T03:13:16;4.63;;;2.53;;
71806;SDS011;59655;42.590;23.364;2024-03-08T03:15:45;4.70;;;2.63;;
71806;SDS011;59655;42.590;23.364;2024-03-08T03:18:11;5.18;;;2.40;;
71806;SDS011;59655;42.590;23.364;2024-03-08T03:20:36;4.65;;;2.92;;
71806;SDS011;59655;42.590;23.364;2024-03-08T03:23:05;5.40;;;2.50;;
71806;SDS011;59655;42.590;23.364;2024-03-08T03:25:33;4.22;;;2.30;;
71806;SDS011;59655;42.590;23.364;2024-03-08T03:28:00;3.08;;;1.90;;
71806;SDS011;59655;42.590;23.364;2024-03-08T03:30:28;3.45;;;1.80;;
71806;SDS011;59655;42.590;23.364;2024-03-08T03:32:58;3.63;;;1.77;;
71806;SDS011;59655;42.590;23.364;2024-03-08T03:35:30;3.42;;;1.70;;
71806;SDS011;59655;42.590;23.364;2024-03-08T03:37:55;3.85;;;2.13;;
71806;SDS011;59655;42.590;23.364;2024-03-08T03:40:33;3.25;;;1.73;;
71806;SDS011;59655;42.590;23.364;2024-03-08T03:42:59;3.58;;;2.00;;
71806;SDS011;59655;42.590;23.364;2024-03-08T03:45:25;4.10;;;2.13;;
71806;SDS011;59655;42.590;23.364;2024-03-08T03:47:50;3.80;;;2.28;;
71806;SDS011;59655;42.590;23.364;2024-03-08T03:50:17;4.30;;;2.17;;
71806;SDS011;59655;42.590;23.364;2024-03-08T03:52:44;3.75;;;1.95;;
71806;SDS011;59655;42.590;23.364;2024-03-08T03:55:10;3.85;;;2.08;;
71806;SDS011;59655;42.590;23.364;2024-03-08T03:57:37;4.28;;;1.73;;
71806;SDS011;59655;42.590;23.364;2024-03-08T04:00:03;2.83;;;1.67;;
71806;SDS011;59655;42.590;23.364;2024-03-08T04:02:29;2.92;;;1.67;;
71806;SDS011;59655;42.590;23.364;2024-03-08T04:04:55;3.85;;;1.42;;
71806;SDS011;59655;42.590;23.364;2024-03-08T04:07:20;2.38;;;1.42;;
71806;SDS011;59655;42.590;23.364;2024-03-08T04:09:46;3.53;;;1.50;;
71806;SDS011;59655;42.590;23.364;2024-03-08T04:12:11;2.88;;;1.30;;
71806;SDS011;59655;42.590;23.364;2024-03-08T04:14:38;1.98;;;0.98;;
71806;SDS011;59655;42.590;23.364;2024-03-08T04:17:04;2.35;;;1.17;;
71806;SDS011;59655;42.590;23.364;2024-03-08T04:19:31;2.65;;;1.50;;
71806;SDS011;59655;42.590;23.364;2024-03-08T04:21:56;3.20;;;1.70;;
71806;SDS011;59655;42.590;23.364;2024-03-08T04:24:22;3.35;;;1.75;;
71806;SDS011;59655;42.590;23.364;2024-03-08T04:26:47;3.13;;;1.92;;
71806;SDS011;59655;42.590;23.364;2024-03-08T04:29:12;4.10;;;2.08;;
71806;SDS011;59655;42.590;23.364;2024-03-08T04:31:39;4.05;;;2.30;;
71806;SDS011;59655;42.590;23.364;2024-03-08T04:34:05;3.28;;;1.98;;
71806;SDS011;59655;42.590;23.364;2024-03-08T04:36:30;3.22;;;1.80;;
71806;SDS011;59655;42.590;23.364;2024-03-08T04:38:56;3.78;;;2.20;;
71806;SDS011;59655;42.590;23.364;2024-03-08T04:41:21;3.72;;;2.00;;
71806;SDS011;59655;42.590;23.364;2024-03-08T04:43:48;3.50;;;2.30;;
71806;SDS011;59655;42.590;23.364;2024-03-08T04:46:13;3.65;;;1.67;;
71806;SDS011;59655;42.590;23.364;2024-03-08T04:48:39;3.10;;;1.70;;
71806;SDS011;59655;42.590;23.364;2024-03-08T04:51:04;3.08;;;1.80;;
71806;SDS011;59655;42.590;23.364;2024-03-08T04:53:29;3.83;;;1.38;;
71806;SDS011;59655;42.590;23.364;2024-03-08T04:55:57;2.92;;;1.13;;
71806;SDS011;59655;42.590;23.364;2024-03-08T04:58:23;4.45;;;1.90;;
71806;SDS011;59655;42.590;23.364;2024-03-08T05:00:48;3.38;;;1.67;;
71806;SDS011;59655;42.590;23.364;2024-03-08T05:03:13;2.83;;;1.48;;
71806;SDS011;59655;42.590;23.364;2024-03-08T05:05:39;3.03;;;1.70;;
71806;SDS011;59655;42.590;23.364;2024-03-08T05:08:04;4.47;;;1.95;;
71806;SDS011;59655;42.590;23.364;2024-03-08T05:10:30;4.90;;;2.00;;
71806;SDS011;59655;42.590;23.364;2024-03-08T05:12:55;6.00;;;1.95;;
71806;SDS011;59655;42.590;23.364;2024-03-08T05:15:21;3.88;;;2.20;;
71806;SDS011;59655;42.590;23.364;2024-03-08T05:17:46;5.68;;;2.30;;
71806;SDS011;59655;42.590;23.364;2024-03-08T05:20:12;2.90;;;1.70;;
71806;SDS011;59655;42.590;23.364;2024-03-08T05:22:38;3.92;;;1.80;;
71806;SDS011;59655;42.590;23.364;2024-03-08T05:25:05;4.28;;;1.90;;
71806;SDS011;59655;42.590;23.364;2024-03-08T05:27:33;4.38;;;2.20;;
71806;SDS011;59655;42.590;23.364;2024-03-08T05:29:59;3.00;;;1.50;;
71806;SDS011;59655;42.590;23.364;2024-03-08T05:32:24;2.65;;;1.48;;
71806;SDS011;59655;42.590;23.364;2024-03-08T05:34:50;2.33;;;1.38;;
71806;SDS011;59655;42.590;23.364;2024-03-08T05:37:15;2.63;;;1.23;;
71806;SDS011;59655;42.590;23.364;2024-03-08T05:39:40;2.80;;;1.20;;
71806;SDS011;59655;42.590;23.364;2024-03-08T05:42:06;3.55;;;1.27;;
71806;SDS011;59655;42.590;23.364;2024-03-08T05:44:33;2.70;;;1.17;;
71806;SDS011;59655;42.590;23.364;2024-03-08T05:46:59;2.03;;;1.10;;
71806;SDS011;59655;42.590;23.364;2024-03-08T05:49:24;2.95;;;1.20;;
71806;SDS011;59655;42.590;23.364;2024-03-08T05:51:50;3.70;;;1.30;;
71806;SDS011;59655;42.590;23.364;2024-03-08T05:54:16;2.67;;;1.50;;
71806;SDS011;59655;42.590;23.364;2024-03-08T05:56:42;2.20;;;1.27;;
71806;SDS011;59655;42.590;23.364;2024-03-08T05:59:08;2.65;;;1.23;;
71806;SDS011;59655;42.590;23.364;2024-03-08T06:01:34;2.72;;;1.60;;
71806;SDS011;59655;42.590;23.364;2024-03-08T06:04:01;3.20;;;1.55;;
71806;SDS011;59655;42.590;23.364;2024-03-08T06:06:27;3.38;;;1.80;;
71806;SDS011;59655;42.590;23.364;2024-03-08T06:08:53;3.10;;;1.80;;
71806;SDS011;59655;42.590;23.364;2024-03-08T06:11:21;2.95;;;1.40;;
71806;SDS011;59655;42.590;23.364;2024-03-08T06:13:46;4.10;;;1.88;;
71806;SDS011;59655;42.590;23.364;2024-03-08T06:16:12;2.72;;;1.65;;
71806;SDS011;59655;42.590;23.364;2024-03-08T06:18:38;3.30;;;1.83;;
71806;SDS011;59655;42.590;23.364;2024-03-08T06:21:04;3.60;;;1.80;;
71806;SDS011;59655;42.590;23.364;2024-03-08T06:23:31;3.47;;;1.75;;
71806;SDS011;59655;42.590;23.364;2024-03-08T06:26:03;4.90;;;2.70;;
71806;SDS011;59655;42.590;23.364;2024-03-08T06:30:57;6.03;;;3.28;;
71806;SDS011;59655;42.590;23.364;2024-03-08T06:33:26;6.38;;;3.40;;
71806;SDS011;59655;42.590;23.364;2024-03-08T06:35:52;7.13;;;3.38;;
71806;SDS011;59655;42.590;23.364;2024-03-08T06:38:19;6.55;;;3.50;;
71806;SDS011;59655;42.590;23.364;2024-03-08T06:40:45;7.10;;;3.53;;
71806;SDS011;59655;42.590;23.364;2024-03-08T06:43:13;8.05;;;3.80;;
71806;SDS011;59655;42.590;23.364;2024-03-08T06:45:41;11.02;;;3.97;;
71806;SDS011;59655;42.590;23.364;2024-03-08T06:48:07;8.38;;;4.43;;
71806;SDS011;59655;42.590;23.364;2024-03-08T06:50:34;8.52;;;4.45;;
71806;SDS011;59655;42.590;23.364;2024-03-08T06:53:01;5.53;;;3.15;;
71806;SDS011;59655;42.590;23.364;2024-03-08T06:55:28;7.45;;;3.75;;
71806;SDS011;59655;42.590;23.364;2024-03-08T06:57:53;7.07;;;3.85;;
71806;SDS011;59655;42.590;23.364;2024-03-08T07:00:19;8.10;;;5.05;;
71806;SDS011;59655;42.590;23.364;2024-03-08T07:02:46;8.10;;;4.97;;
71806;SDS011;59655;42.590;23.364;2024-03-08T07:05:13;9.07;;;4.57;;
71806;SDS011;59655;42.590;23.364;2024-03-08T07:07:39;9.30;;;4.63;;
71806;SDS011;59655;42.590;23.364;2024-03-08T07:10:06;7.43;;;4.57;;
71806;SDS011;59655;42.590;23.364;2024-03-08T07:12:35;8.82;;;4.75;;
71806;SDS011;59655;42.590;23.364;2024-03-08T07:15:02;7.70;;;4.10;;
71806;SDS011;59655;42.590;23.364;2024-03-08T07:17:27;8.18;;;4.40;;
71806;SDS011;59655;42.590;23.364;2024-03-08T07:19:52;6.75;;;3.63;;
71806;SDS011;59655;42.590;23.364;2024-03-08T07:22:19;8.63;;;3.50;;
71806;SDS011;59655;42.590;23.364;2024-03-08T07:24:44;7.97;;;3.30;;
71806;SDS011;59655;42.590;23.364;2024-03-08T07:27:41;6.18;;;3.53;;
71806;SDS011;59655;42.590;23.364;2024-03-08T07:30:07;5.13;;;2.92;;
71806;SDS011;59655;42.590;23.364;2024-03-08T07:32:35;7.15;;;3.75;;
71806;SDS011;59655;42.590;23.364;2024-03-08T07:35:00;6.05;;;3.50;;
71806;SDS011;59655;42.590;23.364;2024-03-08T07:37:29;6.05;;;3.05;;
71806;SDS011;59655;42.590;23.364;2024-03-08T07:39:56;6.00;;;3.30;;
71806;SDS011;59655;42.590;23.364;2024-03-08T07:42:23;5.63;;;3.42;;
71806;SDS011;59655;42.590;23.364;2024-03-08T07:44:48;7.35;;;4.00;;
71806;SDS011;59655;42.590;23.364;2024-03-08T07:47:15;7.35;;;4.00;;
71806;SDS011;59655;42.590;23.364;2024-03-08T07:49:42;6.72;;;4.05;;
71806;SDS011;59655;42.590;23.364;2024-03-08T07:52:09;7.45;;;4.10;;
71806;SDS011;59655;42.590;23.364;2024-03-08T07:54:34;6.93;;;3.92;;
71806;SDS011;59655;42.590;23.364;2024-03-08T07:57:02;6.55;;;3.90;;
71806;SDS011;59655;42.590;23.364;2024-03-08T07:59:28;6.60;;;4.28;;
71806;SDS011;59655;42.590;23.364;2024-03-08T08:01:55;6.93;;;3.80;;
71806;SDS011;59655;42.590;23.364;2024-03-08T08:04:20;7.85;;;4.07;;
71806;SDS011;59655;42.590;23.364;2024-03-08T08:06:49;8.68;;;4.40;;
71806;SDS011;59655;42.590;23.364;2024-03-08T08:09:16;7.78;;;4.72;;
71806;SDS011;59655;42.590;23.364;2024-03-08T08:11:47;7.72;;;4.25;;
71806;SDS011;59655;42.590;23.364;2024-03-08T08:14:12;8.82;;;5.05;;
71806;SDS011;59655;42.590;23.364;2024-03-08T08:16:38;8.90;;;5.07;;
71806;SDS011;59655;42.590;23.364;2024-03-08T08:19:06;6.80;;;4.18;;
71806;SDS011;59655;42.590;23.364;2024-03-08T08:21:35;6.43;;;4.10;;
71806;SDS011;59655;42.590;23.364;2024-03-08T08:24:03;7.65;;;4.13;;
71806;SDS011;59655;42.590;23.364;2024-03-08T08:26:29;7.82;;;4.57;;
71806;SDS011;59655;42.590;23.364;2024-03-08T08:28:55;7.30;;;4.65;;
71806;SDS011;59655;42.590;23.364;2024-03-08T08:31:20;9.43;;;4.25;;
71806;SDS011;59655;42.590;23.364;2024-03-08T08:33:46;7.68;;;4.38;;
71806;SDS011;59655;42.590;23.364;2024-03-08T08:36:14;8.43;;;4.93;;
71806;SDS011;59655;42.590;23.364;2024-03-08T08:38:39;6.65;;;3.75;;
71806;SDS011;59655;42.590;23.364;2024-03-08T08:41:05;6.32;;;3.95;;
71806;SDS011;59655;42.590;23.364;2024-03-08T08:43:31;12.35;;;4.75;;
71806;SDS011;59655;42.590;23.364;2024-03-08T08:45:58;7.82;;;4.88;;
71806;SDS011;59655;42.590;23.364;2024-03-08T08:48:24;8.27;;;4.70;;
71806;SDS011;59655;42.590;23.364;2024-03-08T08:50:49;10.05;;;4.47;;
71806;SDS011;59655;42.590;23.364;2024-03-08T08:53:17;8.55;;;4.63;;
71806;SDS011;59655;42.590;23.364;2024-03-08T08:55:43;8.65;;;4.50;;
71806;SDS011;59655;42.590;23.364;2024-03-08T08:58:10;7.38;;;4.30;;
71806;SDS011;59655;42.590;23.364;2024-03-08T09:00:36;7.95;;;5.00;;
71806;SDS011;59655;42.590;23.364;2024-03-08T09:03:02;8.07;;;3.85;;
71806;SDS011;59655;42.590;23.364;2024-03-08T09:05:27;7.07;;;4.10;;
71806;SDS011;59655;42.590;23.364;2024-03-08T09:07:53;8.73;;;3.72;;
71806;SDS011;59655;42.590;23.364;2024-03-08T09:10:19;9.23;;;4.50;;
71806;SDS011;59655;42.590;23.364;2024-03-08T09:12:44;9.25;;;4.45;;
71806;SDS011;59655;42.590;23.364;2024-03-08T09:15:10;7.78;;;4.35;;
71806;SDS011;59655;42.590;23.364;2024-03-08T09:17:38;11.13;;;5.07;;
71806;SDS011;59655;42.590;23.364;2024-03-08T09:20:08;6.72;;;4.72;;
71806;SDS011;59655;42.590;23.364;2024-03-08T09:22:35;8.82;;;4.88;;
71806;SDS011;59655;42.590;23.364;2024-03-08T09:25:01;8.45;;;4.90;;
71806;SDS011;59655;42.590;23.364;2024-03-08T09:27:26;10.48;;;4.82;;
71806;SDS011;59655;42.590;23.364;2024-03-08T09:29:53;7.13;;;4.57;;
71806;SDS011;59655;42.590;23.364;2024-03-08T09:32:18;9.05;;;4.65;;
71806;SDS011;59655;42.590;23.364;2024-03-08T09:34:44;9.77;;;5.07;;
71806;SDS011;59655;42.590;23.364;2024-03-08T09:37:09;7.18;;;4.68;;
71806;SDS011;59655;42.590;23.364;2024-03-08T09:39:35;16.77;;;5.13;;
71806;SDS011;59655;42.590;23.364;2024-03-08T09:42:03;6.60;;;4.15;;
71806;SDS011;59655;42.590;23.364;2024-03-08T09:46:54;8.65;;;4.05;;
71806;SDS011;59655;42.590;23.364;2024-03-08T09:49:20;8.45;;;4.30;;
71806;SDS011;59655;42.590;23.364;2024-03-08T09:51:46;6.03;;;3.63;;
71806;SDS011;59655;42.590;23.364;2024-03-08T09:54:12;9.73;;;4.22;;
71806;SDS011;59655;42.590;23.364;2024-03-08T09:56:38;8.68;;;3.85;;
71806;SDS011;59655;42.590;23.364;2024-03-08T09:59:06;24.92;;;5.57;;
71806;SDS011;59655;42.590;23.364;2024-03-08T10:01:54;13.73;;;4.40;;
71806;SDS011;59655;42.590;23.364;2024-03-08T10:04:24;7.70;;;3.75;;
71806;SDS011;59655;42.590;23.364;2024-03-08T10:06:50;7.03;;;3.58;;
71806;SDS011;59655;42.590;23.364;2024-03-08T10:09:16;7.15;;;3.25;;
71806;SDS011;59655;42.590;23.364;2024-03-08T10:11:41;5.38;;;3.60;;
71806;SDS011;59655;42.590;23.364;2024-03-08T10:14:08;4.70;;;2.80;;
71806;SDS011;59655;42.590;23.364;2024-03-08T10:16:34;5.75;;;2.85;;
71806;SDS011;59655;42.590;23.364;2024-03-08T10:19:00;5.50;;;3.92;;
71806;SDS011;59655;42.590;23.364;2024-03-08T10:21:25;4.65;;;2.60;;
71806;SDS011;59655;42.590;23.364;2024-03-08T10:23:51;6.07;;;2.60;;
71806;SDS011;59655;42.590;23.364;2024-03-08T10:26:17;4.32;;;2.70;;
71806;SDS011;59655;42.590;23.364;2024-03-08T10:28:47;7.18;;;3.42;;
71806;SDS011;59655;42.590;23.364;2024-03-08T10:31:14;7.68;;;3.33;;
71806;SDS011;59655;42.590;23.364;2024-03-08T10:33:42;7.57;;;3.55;;
71806;SDS011;59655;42.590;23.364;2024-03-08T10:36:09;5.45;;;3.28;;
71806;SDS011;59655;42.590;23.364;2024-03-08T10:38:39;6.88;;;3.05;;
71806;SDS011;59655;42.590;23.364;2024-03-08T10:41:06;8.05;;;3.28;;
71806;SDS011;59655;42.590;23.364;2024-03-08T10:43:40;5.38;;;2.53;;
71806;SDS011;59655;42.590;23.364;2024-03-08T10:46:21;7.38;;;3.00;;
71806;SDS011;59655;42.590;23.364;2024-03-08T10:48:52;6.07;;;3.35;;
71806;SDS011;59655;42.590;23.364;2024-03-08T10:51:20;4.70;;;2.75;;
71806;SDS011;59655;42.590;23.364;2024-03-08T10:53:46;4.60;;;2.70;;
71806;SDS011;59655;42.590;23.364;2024-03-08T10:56:13;4.72;;;2.88;;
71806;SDS011;59655;42.590;23.364;2024-03-08T10:58:39;8.95;;;3.13;;
71806;SDS011;59655;42.590;23.364;2024-03-08T11:01:05;8.57;;;3.70;;
71806;SDS011;59655;42.590;23.364;2024-03-08T11:06:16;5.90;;;2.80;;
71806;SDS011;59655;42.590;23.364;2024-03-08T11:08:48;5.97;;;3.13;;
71806;SDS011;59655;42.590;23.364;2024-03-08T11:13:56;3.83;;;2.47;;
71806;SDS011;59655;42.590;23.364;2024-03-08T11:18:50;5.07;;;2.93;;
71806;SDS011;59655;42.590;23.364;2024-03-08T11:21:18;10.18;;;5.05;;
71806;SDS011;59655;42.590;23.364;2024-03-08T11:23:43;4.28;;;2.97;;
71806;SDS011;59655;42.590;23.364;2024-03-08T11:26:24;9.35;;;3.20;;
71806;SDS011;59655;42.590;23.364;2024-03-08T11:28:49;5.80;;;2.60;;
71806;SDS011;59655;42.590;23.364;2024-03-08T11:33:49;6.78;;;3.15;;
71806;SDS011;59655;42.590;23.364;2024-03-08T11:36:21;4.13;;;2.55;;
71806;SDS011;59655;42.590;23.364;2024-03-08T11:38:49;5.93;;;2.92;;
71806;SDS011;59655;42.590;23.364;2024-03-08T11:41:21;5.47;;;3.05;;
71806;SDS011;59655;42.590;23.364;2024-03-08T11:43:48;6.13;;;2.70;;
71806;SDS011;59655;42.590;23.364;2024-03-08T11:46:15;8.00;;;3.28;;
71806;SDS011;59655;42.590;23.364;2024-03-08T11:48:42;5.25;;;3.17;;
71806;SDS011;59655;42.590;23.364;2024-03-08T11:51:11;7.80;;;4.22;;
71806;SDS011;59655;42.590;23.364;2024-03-08T11:53:37;12.75;;;4.85;;
71806;SDS011;59655;42.590;23.364;2024-03-08T11:58:36;7.78;;;2.55;;
71806;SDS011;59655;42.590;23.364;2024-03-08T12:01:03;6.22;;;2.58;;
71806;SDS011;59655;42.590;23.364;2024-03-08T12:03:30;4.30;;;2.25;;
71806;SDS011;59655;42.590;23.364;2024-03-08T12:05:58;4.78;;;2.55;;
71806;SDS011;59655;42.590;23.364;2024-03-08T12:08:29;4.35;;;2.55;;
71806;SDS011;59655;42.590;23.364;2024-03-08T12:10:56;12.30;;;3.15;;
71806;SDS011;59655;42.590;23.364;2024-03-08T12:15:57;9.02;;;3.28;;
71806;SDS011;59655;42.590;23.364;2024-03-08T12:18:27;4.88;;;3.00;;
71806;SDS011;59655;42.590;23.364;2024-03-08T12:21:08;7.00;;;2.70;;
71806;SDS011;59655;42.590;23.364;2024-03-08T12:23:35;5.32;;;2.67;;
71806;SDS011;59655;42.590;23.364;2024-03-08T12:28:40;5.88;;;2.92;;
71806;SDS011;59655;42.590;23.364;2024-03-08T12:31:08;5.30;;;3.35;;
71806;SDS011;59655;42.590;23.364;2024-03-08T12:33:37;8.77;;;2.92;;
71806;SDS011;59655;42.590;23.364;2024-03-08T12:36:16;5.90;;;2.63;;
71806;SDS011;59655;42.590;23.364;2024-03-08T12:38:45;3.85;;;1.98;;
71806;SDS011;59655;42.590;23.364;2024-03-08T12:41:13;4.85;;;2.45;;
71806;SDS011;59655;42.590;23.364;2024-03-08T12:43:38;3.40;;;2.10;;
71806;SDS011;59655;42.590;23.364;2024-03-08T12:46:04;4.35;;;2.67;;
71806;SDS011;59655;42.590;23.364;2024-03-08T12:48:34;7.88;;;2.90;;
71806;SDS011;59655;42.590;23.364;2024-03-08T12:51:00;7.63;;;2.63;;
71806;SDS011;59655;42.590;23.364;2024-03-08T12:53:26;4.40;;;2.55;;
71806;SDS011;59655;42.590;23.364;2024-03-08T12:55:53;5.57;;;2.50;;
71806;SDS011;59655;42.590;23.364;2024-03-08T12:58:21;5.18;;;2.72;;
71806;SDS011;59655;42.590;23.364;2024-03-08T13:00:46;6.82;;;2.38;;
71806;SDS011;59655;42.590;23.364;2024-03-08T13:03:12;4.03;;;2.13;;
71806;SDS011;59655;42.590;23.364;2024-03-08T13:05:37;4.20;;;2.05;;
71806;SDS011;59655;42.590;23.364;2024-03-08T13:08:05;7.63;;;2.83;;
71806;SDS011;59655;42.590;23.364;2024-03-08T13:10:37;5.50;;;2.53;;
71806;SDS011;59655;42.590;23.364;2024-03-08T13:13:03;4.55;;;3.05;;
71806;SDS011;59655;42.590;23.364;2024-03-08T13:15:29;8.30;;;5.25;;
71806;SDS011;59655;42.590;23.364;2024-03-08T13:17:55;8.15;;;4.88;;
71806;SDS011;59655;42.590;23.364;2024-03-08T13:20:23;6.53;;;2.80;;
71806;SDS011;59655;42.590;23.364;2024-03-08T13:22:48;6.93;;;1.95;;
71806;SDS011;59655;42.590;23.364;2024-03-08T13:25:13;4.88;;;2.17;;
71806;SDS011;59655;42.590;23.364;2024-03-08T13:27:42;5.20;;;2.17;;
71806;SDS011;59655;42.590;23.364;2024-03-08T13:30:14;4.93;;;2.15;;
71806;SDS011;59655;42.590;23.364;2024-03-08T13:32:43;5.15;;;2.00;;
71806;SDS011;59655;42.590;23.364;2024-03-08T13:35:09;3.30;;;1.60;;
71806;SDS011;59655;42.590;23.364;2024-03-08T13:37:40;5.07;;;2.05;;
71806;SDS011;59655;42.590;23.364;2024-03-08T13:40:07;4.50;;;2.17;;
71806;SDS011;59655;42.590;23.364;2024-03-08T13:42:37;4.95;;;2.08;;
71806;SDS011;59655;42.590;23.364;2024-03-08T13:45:04;5.95;;;2.80;;
71806;SDS011;59655;42.590;23.364;2024-03-08T13:47:32;6.82;;;2.40;;
71806;SDS011;59655;42.590;23.364;2024-03-08T13:49:57;5.35;;;2.22;;
71806;SDS011;59655;42.590;23.364;2024-03-08T13:52:23;5.68;;;2.10;;
71806;SDS011;59655;42.590;23.364;2024-03-08T13:54:50;4.00;;;2.08;;
71806;SDS011;59655;42.590;23.364;2024-03-08T13:57:16;5.15;;;1.90;;
71806;SDS011;59655;42.590;23.364;2024-03-08T13:59:43;3.72;;;1.92;;
71806;SDS011;59655;42.590;23.364;2024-03-08T14:02:08;3.25;;;2.00;;
71806;SDS011;59655;42.590;23.364;2024-03-08T14:04:38;3.10;;;2.10;;
71806;SDS011;59655;42.590;23.364;2024-03-08T14:07:05;3.22;;;1.88;;
71806;SDS011;59655;42.590;23.364;2024-03-08T14:09:33;6.95;;;2.00;;
71806;SDS011;59655;42.590;23.364;2024-03-08T14:12:02;5.15;;;2.03;;
71806;SDS011;59655;42.590;23.364;2024-03-08T14:14:31;4.78;;;2.00;;
71806;SDS011;59655;42.590;23.364;2024-03-08T14:16:56;3.17;;;2.05;;
71806;SDS011;59655;42.590;23.364;2024-03-08T14:19:23;3.58;;;2.00;;
71806;SDS011;59655;42.590;23.364;2024-03-08T14:21:48;5.32;;;2.22;;
71806;SDS011;59655;42.590;23.364;2024-03-08T14:24:17;3.72;;;2.10;;
71806;SDS011;59655;42.590;23.364;2024-03-08T14:26:43;3.35;;;1.95;;
71806;SDS011;59655;42.590;23.364;2024-03-08T14:29:09;4.10;;;2.10;;
71806;SDS011;59655;42.590;23.364;2024-03-08T14:31:35;4.22;;;2.08;;
71806;SDS011;59655;42.590;23.364;2024-03-08T14:34:01;3.42;;;1.98;;
71806;SDS011;59655;42.590;23.364;2024-03-08T14:36:28;4.13;;;2.03;;
71806;SDS011;59655;42.590;23.364;2024-03-08T14:38:54;2.90;;;1.80;;
71806;SDS011;59655;42.590;23.364;2024-03-08T14:41:19;7.60;;;1.95;;
71806;SDS011;59655;42.590;23.364;2024-03-08T14:43:45;5.32;;;2.00;;
71806;SDS011;59655;42.590;23.364;2024-03-08T14:46:11;4.68;;;1.77;;
71806;SDS011;59655;42.590;23.364;2024-03-08T14:48:42;3.83;;;1.80;;
71806;SDS011;59655;42.590;23.364;2024-03-08T14:51:10;3.65;;;1.73;;
71806;SDS011;59655;42.590;23.364;2024-03-08T14:53:39;7.53;;;2.00;;